sensor_id;sensor_type;location;lat;lon;timestamp;P1;durP1;ratioP1;P2;durP2;ratioP2
4616;SDS011;2321;42.704;23.384;2023-08-24T00:00:57;67.97;;;36.77;;
4616;SDS011;2321;42.704;23.384;2023-08-24T00:03:24;84.03;;;39.27;;
4616;SDS011;2321;42.704;23.384;2023-08-24T00:05:51;89.60;;;40.47;;
4616;SDS011;2321;42.704;23.384;2023-08-24T00:08:18;83.53;;;38.80;;
4616;SDS011;2321;42.704;23.384;2023-08-24T00:10:44;67.57;;;36.57;;
4616;SDS011;2321;42.704;23.384;2023-08-24T00:13:12;91.80;;;40.63;;
4616;SDS011;2321;42.704;23.384;2023-08-24T00:15:38;105.87;;;44.10;;
4616;SDS011;2321;42.704;23.384;2023-08-24T00:18:06;106.03;;;43.53;;
4616;SDS011;2321;42.704;23.384;2023-08-24T00:20:34;105.03;;;42.77;;
4616;SDS011;2321;42.704;23.384;2023-08-24T00:23:02;103.83;;;42.57;;
4616;SDS011;2321;42.704;23.384;2023-08-24T00:25:29;102.73;;;41.80;;
4616;SDS011;2321;42.704;23.384;2023-08-24T00:27:56;109.23;;;43.03;;
4616;SDS011;2321;42.704;23.384;2023-08-24T00:30:23;97.43;;;41.27;;
4616;SDS011;2321;42.704;23.384;2023-08-24T00:32:49;92.17;;;40.97;;
4616;SDS011;2321;42.704;23.384;2023-08-24T00:35:17;84.63;;;39.50;;
4616;SDS011;2321;42.704;23.384;2023-08-24T00:37:44;89.33;;;40.37;;
4616;SDS011;2321;42.704;23.384;2023-08-24T00:40:10;101.20;;;40.63;;
4616;SDS011;2321;42.704;23.384;2023-08-24T00:42:37;119.13;;;44.33;;
4616;SDS011;2321;42.704;23.384;2023-08-24T00:45:05;110.53;;;42.87;;
4616;SDS011;2321;42.704;23.384;2023-08-24T00:47:32;106.63;;;42.33;;
4616;SDS011;2321;42.704;23.384;2023-08-24T00:49:59;102.13;;;42.17;;
4616;SDS011;2321;42.704;23.384;2023-08-24T00:52:28;98.53;;;40.97;;
4616;SDS011;2321;42.704;23.384;2023-08-24T00:54:55;98.03;;;41.67;;
4616;SDS011;2321;42.704;23.384;2023-08-24T00:57:22;95.50;;;40.43;;
4616;SDS011;2321;42.704;23.384;2023-08-24T00:59:48;92.20;;;40.17;;
4616;SDS011;2321;42.704;23.384;2023-08-24T01:02:15;90.00;;;40.03;;
4616;SDS011;2321;42.704;23.384;2023-08-24T01:04:41;54.57;;;32.50;;
4616;SDS011;2321;42.704;23.384;2023-08-24T01:07:09;101.55;;;42.88;;
4616;SDS011;2321;42.704;23.384;2023-08-24T01:09:37;98.90;;;42.10;;
4616;SDS011;2321;42.704;23.384;2023-08-24T01:12:05;101.63;;;41.87;;
4616;SDS011;2321;42.704;23.384;2023-08-24T01:14:37;99.37;;;41.33;;
4616;SDS011;2321;42.704;23.384;2023-08-24T01:17:06;99.50;;;42.10;;
4616;SDS011;2321;42.704;23.384;2023-08-24T01:19:37;78.57;;;38.20;;
4616;SDS011;2321;42.704;23.384;2023-08-24T01:22:05;50.70;;;32.30;;
4616;SDS011;2321;42.704;23.384;2023-08-24T01:24:35;81.60;;;38.87;;
4616;SDS011;2321;42.704;23.384;2023-08-24T01:27:04;88.47;;;40.13;;
4616;SDS011;2321;42.704;23.384;2023-08-24T01:29:31;99.37;;;41.57;;
4616;SDS011;2321;42.704;23.384;2023-08-24T01:31:57;101.20;;;42.20;;
4616;SDS011;2321;42.704;23.384;2023-08-24T01:34:24;101.33;;;42.20;;
4616;SDS011;2321;42.704;23.384;2023-08-24T01:36:50;103.67;;;41.97;;
4616;SDS011;2321;42.704;23.384;2023-08-24T01:39:19;93.80;;;41.00;;
4616;SDS011;2321;42.704;23.384;2023-08-24T01:41:47;92.57;;;40.50;;
4616;SDS011;2321;42.704;23.384;2023-08-24T01:44:17;99.43;;;41.83;;
4616;SDS011;2321;42.704;23.384;2023-08-24T01:46:44;99.83;;;41.30;;
4616;SDS011;2321;42.704;23.384;2023-08-24T01:49:12;104.60;;;42.90;;
4616;SDS011;2321;42.704;23.384;2023-08-24T01:51:39;105.63;;;42.60;;
4616;SDS011;2321;42.704;23.384;2023-08-24T01:54:06;89.80;;;40.30;;
4616;SDS011;2321;42.704;23.384;2023-08-24T01:56:33;87.97;;;40.03;;
4616;SDS011;2321;42.704;23.384;2023-08-24T01:58:59;81.93;;;38.80;;
4616;SDS011;2321;42.704;23.384;2023-08-24T02:01:27;79.93;;;38.93;;
4616;SDS011;2321;42.704;23.384;2023-08-24T02:03:54;73.47;;;37.70;;
4616;SDS011;2321;42.704;23.384;2023-08-24T02:06:21;70.67;;;36.60;;
4616;SDS011;2321;42.704;23.384;2023-08-24T02:08:48;67.43;;;37.07;;
4616;SDS011;2321;42.704;23.384;2023-08-24T02:11:14;73.57;;;37.43;;
4616;SDS011;2321;42.704;23.384;2023-08-24T02:13:41;74.77;;;37.60;;
4616;SDS011;2321;42.704;23.384;2023-08-24T02:16:08;69.03;;;37.27;;
4616;SDS011;2321;42.704;23.384;2023-08-24T02:18:36;69.47;;;37.50;;
4616;SDS011;2321;42.704;23.384;2023-08-24T02:21:06;70.90;;;36.60;;
4616;SDS011;2321;42.704;23.384;2023-08-24T02:23:33;75.97;;;37.33;;
4616;SDS011;2321;42.704;23.384;2023-08-24T02:25:59;81.07;;;38.40;;
4616;SDS011;2321;42.704;23.384;2023-08-24T02:28:26;84.23;;;38.97;;
4616;SDS011;2321;42.704;23.384;2023-08-24T02:30:52;84.53;;;39.13;;
4616;SDS011;2321;42.704;23.384;2023-08-24T02:33:19;82.30;;;38.70;;
4616;SDS011;2321;42.704;23.384;2023-08-24T02:35:48;78.43;;;37.73;;
4616;SDS011;2321;42.704;23.384;2023-08-24T02:38:14;81.60;;;39.30;;
4616;SDS011;2321;42.704;23.384;2023-08-24T02:40:41;81.27;;;38.43;;
4616;SDS011;2321;42.704;23.384;2023-08-24T02:43:07;87.40;;;40.00;;
4616;SDS011;2321;42.704;23.384;2023-08-24T02:45:34;92.50;;;41.53;;
4616;SDS011;2321;42.704;23.384;2023-08-24T02:48:00;79.43;;;36.33;;
4616;SDS011;2321;42.704;23.384;2023-08-24T02:50:27;79.57;;;36.97;;
4616;SDS011;2321;42.704;23.384;2023-08-24T02:52:55;85.73;;;39.17;;
4616;SDS011;2321;42.704;23.384;2023-08-24T02:55:23;81.43;;;39.00;;
4616;SDS011;2321;42.704;23.384;2023-08-24T02:57:49;70.53;;;36.97;;
4616;SDS011;2321;42.704;23.384;2023-08-24T03:00:16;79.70;;;38.30;;
4616;SDS011;2321;42.704;23.384;2023-08-24T03:02:43;85.63;;;39.77;;
4616;SDS011;2321;42.704;23.384;2023-08-24T03:05:09;91.83;;;40.50;;
4616;SDS011;2321;42.704;23.384;2023-08-24T03:07:36;87.47;;;39.40;;
4616;SDS011;2321;42.704;23.384;2023-08-24T03:10:04;85.23;;;38.33;;
4616;SDS011;2321;42.704;23.384;2023-08-24T03:12:31;89.40;;;39.40;;
4616;SDS011;2321;42.704;23.384;2023-08-24T03:14:57;90.13;;;39.53;;
4616;SDS011;2321;42.704;23.384;2023-08-24T03:17:24;98.30;;;41.20;;
4616;SDS011;2321;42.704;23.384;2023-08-24T03:19:51;96.10;;;40.20;;
4616;SDS011;2321;42.704;23.384;2023-08-24T03:22:17;83.23;;;38.47;;
4616;SDS011;2321;42.704;23.384;2023-08-24T03:24:44;81.90;;;38.23;;
4616;SDS011;2321;42.704;23.384;2023-08-24T03:27:12;82.80;;;38.87;;
4616;SDS011;2321;42.704;23.384;2023-08-24T03:29:38;80.60;;;38.13;;
4616;SDS011;2321;42.704;23.384;2023-08-24T03:32:05;72.93;;;36.30;;
4616;SDS011;2321;42.704;23.384;2023-08-24T03:36:58;70.17;;;35.80;;
4616;SDS011;2321;42.704;23.384;2023-08-24T03:39:25;70.33;;;36.30;;
4616;SDS011;2321;42.704;23.384;2023-08-24T03:41:51;74.97;;;36.87;;
4616;SDS011;2321;42.704;23.384;2023-08-24T03:44:19;75.13;;;36.43;;
4616;SDS011;2321;42.704;23.384;2023-08-24T03:46:46;70.77;;;35.77;;
4616;SDS011;2321;42.704;23.384;2023-08-24T03:49:13;71.90;;;36.83;;
4616;SDS011;2321;42.704;23.384;2023-08-24T03:51:39;61.30;;;33.83;;
4616;SDS011;2321;42.704;23.384;2023-08-24T03:54:06;59.43;;;33.50;;
4616;SDS011;2321;42.704;23.384;2023-08-24T03:56:32;62.70;;;34.90;;
4616;SDS011;2321;42.704;23.384;2023-08-24T03:58:59;69.97;;;35.10;;
4616;SDS011;2321;42.704;23.384;2023-08-24T04:01:27;83.87;;;38.23;;
4616;SDS011;2321;42.704;23.384;2023-08-24T04:03:54;76.23;;;36.83;;
4616;SDS011;2321;42.704;23.384;2023-08-24T04:06:20;50.33;;;31.13;;
4616;SDS011;2321;42.704;23.384;2023-08-24T04:08:47;75.63;;;37.47;;
4616;SDS011;2321;42.704;23.384;2023-08-24T04:11:13;67.50;;;36.53;;
4616;SDS011;2321;42.704;23.384;2023-08-24T04:13:40;34.50;;;27.50;;
4616;SDS011;2321;42.704;23.384;2023-08-24T04:16:06;30.53;;;24.77;;
4616;SDS011;2321;42.704;23.384;2023-08-24T04:18:34;57.57;;;34.53;;
4616;SDS011;2321;42.704;23.384;2023-08-24T04:21:01;40.10;;;28.13;;
4616;SDS011;2321;42.704;23.384;2023-08-24T04:23:27;39.23;;;27.77;;
4616;SDS011;2321;42.704;23.384;2023-08-24T04:25:54;27.42;;;24.55;;
4616;SDS011;2321;42.704;23.384;2023-08-24T04:28:21;26.87;;;23.87;;
4616;SDS011;2321;42.704;23.384;2023-08-24T04:30:51;46.40;;;31.20;;
4616;SDS011;2321;42.704;23.384;2023-08-24T04:33:18;44.90;;;30.20;;
4616;SDS011;2321;42.704;23.384;2023-08-24T04:35:46;46.17;;;30.50;;
4616;SDS011;2321;42.704;23.384;2023-08-24T04:38:13;52.23;;;32.53;;
4616;SDS011;2321;42.704;23.384;2023-08-24T04:40:49;43.00;;;29.43;;
4616;SDS011;2321;42.704;23.384;2023-08-24T04:43:16;73.93;;;37.30;;
4616;SDS011;2321;42.704;23.384;2023-08-24T04:45:42;70.17;;;36.63;;
4616;SDS011;2321;42.704;23.384;2023-08-24T04:48:09;62.30;;;35.17;;
4616;SDS011;2321;42.704;23.384;2023-08-24T04:50:35;58.27;;;32.40;;
4616;SDS011;2321;42.704;23.384;2023-08-24T04:53:03;71.27;;;36.53;;
4616;SDS011;2321;42.704;23.384;2023-08-24T04:55:31;66.53;;;34.80;;
4616;SDS011;2321;42.704;23.384;2023-08-24T04:57:57;68.97;;;35.70;;
4616;SDS011;2321;42.704;23.384;2023-08-24T05:00:24;54.87;;;32.57;;
4616;SDS011;2321;42.704;23.384;2023-08-24T05:02:50;53.43;;;32.57;;
4616;SDS011;2321;42.704;23.384;2023-08-24T05:05:17;72.13;;;36.40;;
4616;SDS011;2321;42.704;23.384;2023-08-24T05:07:44;68.50;;;35.70;;
4616;SDS011;2321;42.704;23.384;2023-08-24T05:10:12;67.57;;;35.63;;
4616;SDS011;2321;42.704;23.384;2023-08-24T05:12:38;83.67;;;38.47;;
4616;SDS011;2321;42.704;23.384;2023-08-24T05:15:05;84.90;;;39.30;;
4616;SDS011;2321;42.704;23.384;2023-08-24T05:17:32;78.00;;;38.80;;
4616;SDS011;2321;42.704;23.384;2023-08-24T05:19:59;78.30;;;37.80;;
4616;SDS011;2321;42.704;23.384;2023-08-24T05:22:25;63.43;;;35.23;;
4616;SDS011;2321;42.704;23.384;2023-08-24T05:24:52;60.07;;;34.77;;
4616;SDS011;2321;42.704;23.384;2023-08-24T05:27:20;81.33;;;37.97;;
4616;SDS011;2321;42.704;23.384;2023-08-24T05:29:46;75.23;;;37.47;;
4616;SDS011;2321;42.704;23.384;2023-08-24T05:32:13;66.93;;;35.43;;
4616;SDS011;2321;42.704;23.384;2023-08-24T05:34:39;62.20;;;34.57;;
4616;SDS011;2321;42.704;23.384;2023-08-24T05:37:06;64.97;;;34.17;;
4616;SDS011;2321;42.704;23.384;2023-08-24T05:39:32;62.70;;;34.70;;
4616;SDS011;2321;42.704;23.384;2023-08-24T05:41:59;72.23;;;37.43;;
4616;SDS011;2321;42.704;23.384;2023-08-24T05:44:27;76.43;;;37.80;;
4616;SDS011;2321;42.704;23.384;2023-08-24T05:46:54;56.80;;;34.30;;
4616;SDS011;2321;42.704;23.384;2023-08-24T05:49:21;60.90;;;34.65;;
4616;SDS011;2321;42.704;23.384;2023-08-24T05:51:50;61.20;;;34.33;;
4616;SDS011;2321;42.704;23.384;2023-08-24T05:54:16;68.87;;;36.30;;
4616;SDS011;2321;42.704;23.384;2023-08-24T05:56:43;75.23;;;37.90;;
4616;SDS011;2321;42.704;23.384;2023-08-24T05:59:10;69.07;;;37.20;;
4616;SDS011;2321;42.704;23.384;2023-08-24T06:01:38;81.87;;;39.03;;
4616;SDS011;2321;42.704;23.384;2023-08-24T06:04:04;80.40;;;39.00;;
4616;SDS011;2321;42.704;23.384;2023-08-24T06:06:31;71.00;;;36.87;;
4616;SDS011;2321;42.704;23.384;2023-08-24T06:08:58;75.83;;;37.63;;
4616;SDS011;2321;42.704;23.384;2023-08-24T06:11:24;77.63;;;38.13;;
4616;SDS011;2321;42.704;23.384;2023-08-24T06:13:51;67.77;;;36.53;;
4616;SDS011;2321;42.704;23.384;2023-08-24T06:16:19;52.53;;;32.00;;
4616;SDS011;2321;42.704;23.384;2023-08-24T06:18:47;64.70;;;36.47;;
4616;SDS011;2321;42.704;23.384;2023-08-24T06:21:15;67.37;;;35.87;;
4616;SDS011;2321;42.704;23.384;2023-08-24T06:23:41;77.40;;;38.70;;
4616;SDS011;2321;42.704;23.384;2023-08-24T06:26:09;97.50;;;42.43;;
4616;SDS011;2321;42.704;23.384;2023-08-24T06:28:36;94.17;;;41.37;;
4616;SDS011;2321;42.704;23.384;2023-08-24T06:31:15;85.70;;;40.33;;
4616;SDS011;2321;42.704;23.384;2023-08-24T06:33:45;60.13;;;35.37;;
4616;SDS011;2321;42.704;23.384;2023-08-24T06:36:16;20.07;;;18.57;;
4616;SDS011;2321;42.704;23.384;2023-08-24T06:38:43;52.33;;;32.93;;
4616;SDS011;2321;42.704;23.384;2023-08-24T06:41:12;69.33;;;36.43;;
4616;SDS011;2321;42.704;23.384;2023-08-24T06:43:39;64.97;;;35.27;;
4616;SDS011;2321;42.704;23.384;2023-08-24T06:46:05;57.17;;;33.50;;
4616;SDS011;2321;42.704;23.384;2023-08-24T06:48:33;65.20;;;36.20;;
4616;SDS011;2321;42.704;23.384;2023-08-24T06:50:59;65.90;;;35.90;;
4616;SDS011;2321;42.704;23.384;2023-08-24T06:53:29;68.63;;;36.77;;
4616;SDS011;2321;42.704;23.384;2023-08-24T06:55:55;73.93;;;37.43;;
4616;SDS011;2321;42.704;23.384;2023-08-24T06:58:22;73.30;;;37.77;;
4616;SDS011;2321;42.704;23.384;2023-08-24T07:00:49;70.27;;;37.40;;
4616;SDS011;2321;42.704;23.384;2023-08-24T07:03:16;76.37;;;38.37;;
4616;SDS011;2321;42.704;23.384;2023-08-24T07:05:43;58.13;;;34.70;;
4616;SDS011;2321;42.704;23.384;2023-08-24T07:08:12;61.40;;;35.63;;
4616;SDS011;2321;42.704;23.384;2023-08-24T07:10:46;49.67;;;34.07;;
4616;SDS011;2321;42.704;23.384;2023-08-24T07:13:12;44.63;;;31.80;;
4616;SDS011;2321;42.704;23.384;2023-08-24T07:15:39;42.10;;;30.23;;
4616;SDS011;2321;42.704;23.384;2023-08-24T07:18:05;47.30;;;31.67;;
4616;SDS011;2321;42.704;23.384;2023-08-24T07:20:34;40.40;;;29.87;;
4616;SDS011;2321;42.704;23.384;2023-08-24T07:23:00;41.93;;;30.37;;
4616;SDS011;2321;42.704;23.384;2023-08-24T07:25:27;37.80;;;29.30;;
4616;SDS011;2321;42.704;23.384;2023-08-24T07:27:55;47.00;;;31.97;;
4616;SDS011;2321;42.704;23.384;2023-08-24T07:30:23;49.20;;;33.30;;
4616;SDS011;2321;42.704;23.384;2023-08-24T07:32:50;40.45;;;30.17;;
4616;SDS011;2321;42.704;23.384;2023-08-24T07:35:17;30.13;;;25.93;;
4616;SDS011;2321;42.704;23.384;2023-08-24T07:37:44;28.73;;;25.63;;
4616;SDS011;2321;42.704;23.384;2023-08-24T07:40:11;22.98;;;21.05;;
4616;SDS011;2321;42.704;23.384;2023-08-24T07:47:34;33.13;;;29.95;;
4616;SDS011;2321;42.704;23.384;2023-08-24T07:50:01;43.45;;;31.90;;
4616;SDS011;2321;42.704;23.384;2023-08-24T07:52:27;24.97;;;22.47;;
4616;SDS011;2321;42.704;23.384;2023-08-24T07:57:24;48.07;;;36.27;;
4616;SDS011;2321;42.704;23.384;2023-08-24T08:02:17;21.65;;;20.23;;
4616;SDS011;2321;42.704;23.384;2023-08-24T08:12:05;51.30;;;36.33;;
4616;SDS011;2321;42.704;23.384;2023-08-24T08:14:32;28.37;;;25.43;;
4616;SDS011;2321;42.704;23.384;2023-08-24T08:16:58;28.77;;;25.83;;
4616;SDS011;2321;42.704;23.384;2023-08-24T08:19:25;27.50;;;24.73;;
4616;SDS011;2321;42.704;23.384;2023-08-24T08:21:53;30.70;;;27.33;;
4616;SDS011;2321;42.704;23.384;2023-08-24T08:24:19;25.00;;;22.60;;
4616;SDS011;2321;42.704;23.384;2023-08-24T08:26:46;24.07;;;22.10;;
4616;SDS011;2321;42.704;23.384;2023-08-24T08:29:14;26.67;;;24.07;;
4616;SDS011;2321;42.704;23.384;2023-08-24T08:31:41;23.20;;;21.35;;
4616;SDS011;2321;42.704;23.384;2023-08-24T08:34:08;23.87;;;21.73;;
4616;SDS011;2321;42.704;23.384;2023-08-24T08:36:34;28.00;;;25.17;;
4616;SDS011;2321;42.704;23.384;2023-08-24T08:39:03;26.05;;;23.58;;
4616;SDS011;2321;42.704;23.384;2023-08-24T08:41:30;27.08;;;24.50;;
4616;SDS011;2321;42.704;23.384;2023-08-24T08:43:58;28.60;;;25.70;;
4616;SDS011;2321;42.704;23.384;2023-08-24T08:46:27;26.87;;;24.13;;
4616;SDS011;2321;42.704;23.384;2023-08-24T08:48:53;28.93;;;25.93;;
4616;SDS011;2321;42.704;23.384;2023-08-24T08:51:20;30.87;;;26.37;;
4616;SDS011;2321;42.704;23.384;2023-08-24T08:53:47;36.47;;;29.47;;
4616;SDS011;2321;42.704;23.384;2023-08-24T08:56:14;31.27;;;27.53;;
4616;SDS011;2321;42.704;23.384;2023-08-24T08:58:42;29.83;;;26.10;;
4616;SDS011;2321;42.704;23.384;2023-08-24T09:01:08;21.55;;;20.05;;
4616;SDS011;2321;42.704;23.384;2023-08-24T09:03:37;36.80;;;28.23;;
4616;SDS011;2321;42.704;23.384;2023-08-24T09:10:58;34.25;;;29.17;;
4616;SDS011;2321;42.704;23.384;2023-08-24T09:13:27;32.90;;;27.70;;
4616;SDS011;2321;42.704;23.384;2023-08-24T09:15:54;27.93;;;25.23;;
4616;SDS011;2321;42.704;23.384;2023-08-24T09:18:20;24.57;;;22.33;;
4616;SDS011;2321;42.704;23.384;2023-08-24T09:20:48;19.38;;;18.08;;
4616;SDS011;2321;42.704;23.384;2023-08-24T09:23:18;24.02;;;22.30;;
4616;SDS011;2321;42.704;23.384;2023-08-24T09:25:46;28.20;;;25.40;;
4616;SDS011;2321;42.704;23.384;2023-08-24T09:28:14;25.90;;;23.63;;
4616;SDS011;2321;42.704;23.384;2023-08-24T09:30:40;30.57;;;27.37;;
4616;SDS011;2321;42.704;23.384;2023-08-24T09:33:11;27.00;;;24.52;;
4616;SDS011;2321;42.704;23.384;2023-08-24T09:35:37;24.48;;;22.38;;
4616;SDS011;2321;42.704;23.384;2023-08-24T09:40:32;40.60;;;34.72;;
4616;SDS011;2321;42.704;23.384;2023-08-24T09:42:58;70.63;;;40.03;;
4616;SDS011;2321;42.704;23.384;2023-08-24T09:45:29;35.45;;;31.95;;
4616;SDS011;2321;42.704;23.384;2023-08-24T09:47:57;23.13;;;21.40;;
4616;SDS011;2321;42.704;23.384;2023-08-24T10:05:07;20.40;;;18.98;;
4616;SDS011;2321;42.704;23.384;2023-08-24T11:11:06;13.70;;;13.10;;
4616;SDS011;2321;42.704;23.384;2023-08-24T12:12:23;21.85;;;20.20;;
4616;SDS011;2321;42.704;23.384;2023-08-24T22:30:05;11.75;;;11.25;;
